PWSweather.com
Personal Weather Stations
Station Observations
MARRWS
Allansford VictoriaAU 3277

Allansford VictoriaAU 3277

Lat: -38.4003683814149, Lon: 142.569826841354

Elevation: 36

Station Type: Fine Offset X7062

http://home.vicnet.net.au/~marr/Weather/

Latest ConditionsUpdated 2:00:02 PM GMT+10:10 Monday, Sep 15, 2014
Currently Today's Max Today's Min Today's Average
Temperature 69.1°F20.6°C 77.0°F25.0°C 51.3°F10.7°C 58.5°F14.7°C
Dew Point 55.5°F13.1°C 58.4°F14.7°C 49.4°F9.7°C 52.7°F11.5°C
Winds 6.7 mph SE10.8 kmh SE 6.7 mph SE10.8 kmh SE - 2.6 mph 4.2 kmh
Wind Gusts 13.6 mph21.9 kmh 13.6 mph21.9 kmh - -
Humidity 62% 100% 48% 83%
Pressure 29.51 in999.3 mb 29.79 in1008.8 mb 29.50 in999.0 mb -
Precipitation - 0.09 in2.3 mm - -
Hour Temp Dew Point Humidity Winds Wind Gusts Pressure Precip Precip Rate Daily Precip Total
02:00 PM 69.1°F20.6°C 55.5°F13.1°C 62% 6.7 mph SE10.8 kmh SE 13.6 mph21.9 kmh 29.51 in999.3 mb 0.00 in0.0 mm 0.00 in/hr0.0 mm/hr 0.09 in2.3 mm
01:50 PM 66.9°F19.4°C 54.4°F12.4°C 64% 5.9 mph SE9.5 kmh SE 13.0 mph20.9 kmh 29.50 in999.0 mb 0.00 in0.0 mm 0.00 in/hr0.0 mm/hr 0.09 in2.3 mm
01:40 PM 70.2°F21.2°C 55.2°F12.9°C 59% 6.1 mph ESE9.8 kmh ESE 13.6 mph21.9 kmh 29.51 in999.3 mb 0.00 in0.0 mm 0.00 in/hr0.0 mm/hr 0.09 in2.3 mm
01:30 PM 70.9°F21.6°C 55.9°F13.3°C 59% 5.1 mph SE8.2 kmh SE 13.0 mph20.9 kmh 29.52 in999.7 mb 0.00 in0.0 mm 0.00 in/hr0.0 mm/hr 0.09 in2.3 mm
01:20 PM 71.1°F21.7°C 57.0°F13.9°C 61% 4.2 mph ESE6.8 kmh ESE 7.6 mph12.2 kmh 29.53 in1000.0 mb 0.00 in0.0 mm 0.00 in/hr0.0 mm/hr 0.09 in2.3 mm
01:10 PM 68.4°F20.2°C 55.7°F13.2°C 64% 4.9 mph SE7.9 kmh SE 9.8 mph15.8 kmh 29.54 in1000.3 mb 0.00 in0.0 mm 0.00 in/hr0.0 mm/hr 0.09 in2.3 mm
01:00 PM 67.8°F19.9°C 55.2°F12.9°C 64% 5.7 mph SE9.2 kmh SE 9.8 mph15.8 kmh 29.53 in1000.0 mb 0.00 in0.0 mm 0.00 in/hr0.0 mm/hr 0.09 in2.3 mm
12:50 PM 71.1°F21.7°C 56.0°F13.3°C 59% 4.7 mph SE7.6 kmh SE 11.4 mph18.3 kmh 29.54 in1000.3 mb 0.00 in0.0 mm 0.00 in/hr0.0 mm/hr 0.09 in2.3 mm
12:40 PM 72.5°F22.5°C 55.9°F13.3°C 56% 4.6 mph ESE7.4 kmh ESE 11.4 mph18.3 kmh 29.55 in1000.7 mb 0.00 in0.0 mm 0.00 in/hr0.0 mm/hr 0.09 in2.3 mm
12:30 PM 71.4°F21.9°C 53.4°F11.9°C 53% 4.5 mph SE7.2 kmh SE 13.0 mph20.9 kmh 29.55 in1000.7 mb 0.00 in0.0 mm 0.00 in/hr0.0 mm/hr 0.09 in2.3 mm
12:20 PM 73.6°F23.1°C 53.3°F11.8°C 49% 4.8 mph SE7.7 kmh SE 11.4 mph18.3 kmh 29.56 in1001.0 mb 0.00 in0.0 mm 0.00 in/hr0.0 mm/hr 0.09 in2.3 mm
12:10 PM 77.0°F25.0°C 55.8°F13.2°C 48% 4.4 mph E7.1 kmh E 10.7 mph17.2 kmh 29.57 in1001.4 mb 0.00 in0.0 mm 0.00 in/hr0.0 mm/hr 0.09 in2.3 mm
12:00 PM 75.0°F23.9°C 56.2°F13.4°C 52% 4.7 mph E7.6 kmh E 13.0 mph20.9 kmh 29.58 in1001.7 mb 0.00 in0.0 mm 0.00 in/hr0.0 mm/hr 0.09 in2.3 mm
11:51 AM 75.0°F23.9°C 56.8°F13.8°C 53% 4.3 mph E6.9 kmh E 9.2 mph14.8 kmh 29.58 in1001.7 mb 0.00 in0.0 mm 0.00 in/hr0.0 mm/hr 0.09 in2.3 mm
11:42 AM 71.4°F21.9°C 56.4°F13.6°C 59% 3.7 mph ESE6.0 kmh ESE 9.2 mph14.8 kmh 29.59 in1002.0 mb 0.00 in0.0 mm 0.00 in/hr0.0 mm/hr 0.09 in2.3 mm
11:33 AM 76.5°F24.7°C 56.4°F13.6°C 50% 3.7 mph E6.0 kmh E 11.2 mph18.0 kmh 29.62 in1003.0 mb 0.00 in0.0 mm 0.00 in/hr0.0 mm/hr 0.09 in2.3 mm
11:23 AM 68.5°F20.3°C 54.1°F12.3°C 60% 3.1 mph NE5.0 kmh NE 6.0 mph9.7 kmh 29.60 in1002.4 mb 0.00 in0.0 mm 0.00 in/hr0.0 mm/hr 0.09 in2.3 mm
10:40 AM 73.9°F23.3°C 57.3°F14.1°C 56% 4.3 mph E6.9 kmh E 9.8 mph15.8 kmh 29.63 in1003.4 mb 0.00 in0.0 mm 0.00 in/hr0.0 mm/hr 0.09 in2.3 mm
10:30 AM 70.2°F21.2°C 56.1°F13.4°C 61% 4.2 mph ESE6.8 kmh ESE 10.7 mph17.2 kmh 29.63 in1003.4 mb 0.00 in0.0 mm 0.00 in/hr0.0 mm/hr 0.09 in2.3 mm
10:20 AM 71.6°F22.0°C 56.1°F13.4°C 58% 4.1 mph E6.6 kmh E 10.7 mph17.2 kmh 29.64 in1003.7 mb 0.00 in0.0 mm 0.00 in/hr0.0 mm/hr 0.09 in2.3 mm
10:10 AM 70.5°F21.4°C 56.9°F13.8°C 62% 4.8 mph E7.7 kmh E 13.0 mph20.9 kmh 29.65 in1004.1 mb 0.00 in0.0 mm 0.00 in/hr0.0 mm/hr 0.09 in2.3 mm
10:00 AM 68.4°F20.2°C 55.7°F13.2°C 64% 5.7 mph ENE9.2 kmh ENE 13.0 mph20.9 kmh 29.64 in1003.7 mb 0.00 in0.0 mm 0.00 in/hr0.0 mm/hr 0.09 in2.3 mm
09:50 AM 67.6°F19.8°C 56.3°F13.5°C 67% 4.7 mph ESE7.6 kmh ESE 10.7 mph17.2 kmh 29.66 in1004.4 mb 0.00 in0.0 mm 0.00 in/hr0.0 mm/hr 0.09 in2.3 mm
09:40 AM 65.7°F18.7°C 56.4°F13.6°C 72% 5.2 mph ENE8.4 kmh ENE 13.0 mph20.9 kmh 29.66 in1004.4 mb 0.00 in0.0 mm 0.00 in/hr0.0 mm/hr 0.09 in2.3 mm
09:30 AM 64.4°F18.0°C 56.0°F13.3°C 74% 4.8 mph E7.7 kmh E 12.1 mph19.5 kmh 29.67 in1004.7 mb 0.00 in0.0 mm 0.00 in/hr0.0 mm/hr 0.09 in2.3 mm
09:20 AM 64.2°F17.9°C 57.6°F14.2°C 79% 3.9 mph NE6.3 kmh NE 10.7 mph17.2 kmh 29.67 in1004.7 mb 0.00 in0.0 mm 0.00 in/hr0.0 mm/hr 0.09 in2.3 mm
09:10 AM 63.0°F17.2°C 58.4°F14.7°C 85% 3.0 mph E4.8 kmh E 10.7 mph17.2 kmh 29.68 in1005.1 mb 0.00 in0.0 mm 0.00 in/hr0.0 mm/hr 0.09 in2.3 mm
09:00 AM 60.4°F15.8°C 57.5°F14.2°C 90% 1.9 mph E3.1 kmh E 6.0 mph9.7 kmh 29.68 in1005.1 mb 0.00 in0.0 mm 0.00 in/hr0.0 mm/hr 0.09 in2.3 mm
08:50 AM 57.7°F14.3°C 55.4°F13.0°C 92% 3.4 mph E5.5 kmh E 10.7 mph17.2 kmh 29.68 in1005.1 mb 0.00 in0.0 mm 0.00 in/hr0.0 mm/hr 0.09 in2.3 mm
08:40 AM 57.2°F14.0°C 55.5°F13.1°C 94% 3.7 mph ENE6.0 kmh ENE 10.7 mph17.2 kmh 29.69 in1005.4 mb 0.00 in0.0 mm 0.00 in/hr0.0 mm/hr 0.09 in2.3 mm
08:30 AM 56.8°F13.8°C 55.7°F13.2°C 96% 2.8 mph E4.5 kmh E 8.3 mph13.4 kmh 29.70 in1005.8 mb 0.00 in0.0 mm 0.00 in/hr0.0 mm/hr 0.09 in2.3 mm
08:20 AM 56.5°F13.6°C 55.6°F13.1°C 97% 3.4 mph E5.5 kmh E 7.6 mph12.2 kmh 29.70 in1005.8 mb 0.00 in0.0 mm 0.00 in/hr0.0 mm/hr 0.09 in2.3 mm
08:10 AM 56.8°F13.8°C 56.0°F13.3°C 97% 2.5 mph ENE4.0 kmh ENE 6.0 mph9.7 kmh 29.70 in1005.8 mb 0.00 in0.0 mm 0.00 in/hr0.0 mm/hr 0.09 in2.3 mm
08:00 AM 54.9°F12.7°C 54.0°F12.2°C 97% 2.7 mph E4.3 kmh E 6.9 mph11.1 kmh 29.70 in1005.8 mb 0.00 in0.0 mm 0.00 in/hr0.0 mm/hr 0.09 in2.3 mm
07:50 AM 54.0°F12.2°C 53.1°F11.7°C 97% 3.0 mph NE4.8 kmh NE 7.6 mph12.2 kmh 29.71 in1006.1 mb 0.00 in0.0 mm 0.00 in/hr0.0 mm/hr 0.09 in2.3 mm
07:40 AM 53.8°F12.1°C 53.0°F11.7°C 97% 2.7 mph ENE4.3 kmh ENE 6.9 mph11.1 kmh 29.70 in1005.8 mb 0.00 in0.0 mm 0.00 in/hr0.0 mm/hr 0.09 in2.3 mm
07:30 AM 52.9°F11.6°C 52.9°F11.6°C 100% 1.8 mph ENE2.9 kmh ENE 6.9 mph11.1 kmh 29.70 in1005.8 mb 0.01 in0.3 mm 0.00 in/hr0.0 mm/hr 0.09 in2.3 mm
07:20 AM 52.3°F11.3°C 52.3°F11.3°C 100% 1.0 mph E1.6 kmh E 3.8 mph6.1 kmh 29.70 in1005.8 mb 0.01 in0.3 mm 0.00 in/hr0.0 mm/hr 0.09 in2.3 mm
07:10 AM 51.8°F11.0°C 51.8°F11.0°C 100% 0.8 mph E1.3 kmh E 3.1 mph5.0 kmh 29.70 in1005.8 mb 0.01 in0.3 mm 0.00 in/hr0.0 mm/hr 0.09 in2.3 mm
07:00 AM 51.4°F10.8°C 51.2°F10.7°C 99% 1.0 mph ESE1.6 kmh ESE 3.8 mph6.1 kmh 29.71 in1006.1 mb 0.01 in0.3 mm 0.00 in/hr0.0 mm/hr 0.09 in2.3 mm
06:50 AM 51.3°F10.7°C 51.3°F10.7°C 100% 1.6 mph E2.6 kmh E 7.6 mph12.2 kmh 29.71 in1006.1 mb 0.01 in0.3 mm 0.00 in/hr0.0 mm/hr 0.09 in2.3 mm
06:40 AM 51.3°F10.7°C 51.3°F10.7°C 100% 2.5 mph SE4.0 kmh SE 7.6 mph12.2 kmh 29.70 in1005.8 mb 0.01 in0.3 mm 0.06 in/hr1.5 mm/hr 0.09 in2.3 mm
06:30 AM 51.3°F10.7°C 51.3°F10.7°C 100% 1.6 mph SE2.6 kmh SE 4.5 mph7.2 kmh 29.70 in1005.8 mb 0.00 in0.0 mm 0.00 in/hr0.0 mm/hr 0.08 in2.0 mm
06:20 AM 51.8°F11.0°C 51.0°F10.6°C 97% 1.5 mph ESE2.4 kmh ESE 3.8 mph6.1 kmh 29.70 in1005.8 mb 0.00 in0.0 mm 0.00 in/hr0.0 mm/hr 0.08 in2.0 mm
06:10 AM 52.2°F11.2°C 51.3°F10.7°C 97% 1.2 mph SE1.9 kmh SE 3.8 mph6.1 kmh 29.70 in1005.8 mb 0.00 in0.0 mm 0.00 in/hr0.0 mm/hr 0.08 in2.0 mm
06:00 AM 52.2°F11.2°C 51.3°F10.7°C 97% 2.5 mph SE4.0 kmh SE 5.4 mph8.7 kmh 29.70 in1005.8 mb 0.00 in0.0 mm 0.00 in/hr0.0 mm/hr 0.08 in2.0 mm
05:50 AM 52.3°F11.3°C 51.5°F10.8°C 97% 3.0 mph SE4.8 kmh SE 6.0 mph9.7 kmh 29.70 in1005.8 mb 0.00 in0.0 mm 0.00 in/hr0.0 mm/hr 0.08 in2.0 mm
05:40 AM 52.2°F11.2°C 51.1°F10.6°C 96% 2.3 mph SE3.7 kmh SE 6.0 mph9.7 kmh 29.70 in1005.8 mb 0.00 in0.0 mm 0.00 in/hr0.0 mm/hr 0.08 in2.0 mm
05:30 AM 52.2°F11.2°C 51.1°F10.6°C 96% 0.6 mph SE1.0 kmh SE 3.1 mph5.0 kmh 29.70 in1005.8 mb 0.00 in0.0 mm 0.00 in/hr0.0 mm/hr 0.08 in2.0 mm
05:20 AM 52.0°F11.1°C 50.9°F10.5°C 96% 0.5 mph SE0.8 kmh SE 3.1 mph5.0 kmh 29.71 in1006.1 mb 0.00 in0.0 mm 0.00 in/hr0.0 mm/hr 0.08 in2.0 mm
05:10 AM 52.2°F11.2°C 51.1°F10.6°C 96% 0.6 mph SSE1.0 kmh SSE 2.2 mph3.5 kmh 29.71 in1006.1 mb 0.01 in0.3 mm 0.00 in/hr0.0 mm/hr 0.08 in2.0 mm
05:00 AM 52.2°F11.2°C 50.8°F10.4°C 95% 0.6 mph SE1.0 kmh SE 3.1 mph5.0 kmh 29.70 in1005.8 mb 0.01 in0.3 mm 0.00 in/hr0.0 mm/hr 0.08 in2.0 mm
04:50 AM 52.3°F11.3°C 51.0°F10.6°C 95% 0.1 mph SE0.2 kmh SE 1.6 mph2.6 kmh 29.71 in1006.1 mb 0.02 in0.5 mm 0.00 in/hr0.0 mm/hr 0.08 in2.0 mm
04:40 AM 52.2°F11.2°C 50.8°F10.4°C 95% 0.7 mph ESE1.1 kmh ESE 3.1 mph5.0 kmh 29.70 in1005.8 mb 0.04 in1.0 mm 0.00 in/hr0.0 mm/hr 0.08 in2.0 mm
04:30 AM 52.3°F11.3°C 51.0°F10.6°C 95% 1.3 mph E2.1 kmh E 6.0 mph9.7 kmh 29.71 in1006.1 mb 0.06 in1.5 mm 0.00 in/hr0.0 mm/hr 0.08 in2.0 mm
04:20 AM 52.2°F11.2°C 50.5°F10.3°C 94% 1.6 mph ENE2.6 kmh ENE 4.5 mph7.2 kmh 29.70 in1005.8 mb 0.07 in1.8 mm 0.06 in/hr1.5 mm/hr 0.08 in2.0 mm
04:10 AM 52.2°F11.2°C 50.5°F10.3°C 94% 1.6 mph NE2.6 kmh NE 4.5 mph7.2 kmh 29.70 in1005.8 mb 0.06 in1.5 mm 0.00 in/hr0.0 mm/hr 0.07 in1.8 mm
04:00 AM 52.0°F11.1°C 50.0°F10.0°C 93% 1.4 mph E2.3 kmh E 5.4 mph8.7 kmh 29.70 in1005.8 mb 0.07 in1.8 mm 0.01 in/hr0.3 mm/hr 0.07 in1.8 mm
03:50 AM 51.8°F11.0°C 49.8°F9.9°C 93% 1.6 mph E2.6 kmh E 3.8 mph6.1 kmh 29.70 in1005.8 mb 0.06 in1.5 mm 0.06 in/hr1.5 mm/hr 0.06 in1.5 mm
03:40 AM 51.8°F11.0°C 49.8°F9.9°C 93% 1.7 mph NE2.7 kmh NE 4.5 mph7.2 kmh 29.72 in1006.4 mb 0.05 in1.3 mm 0.18 in/hr4.6 mm/hr 0.05 in1.3 mm
03:30 AM 51.4°F10.8°C 49.5°F9.7°C 93% 1.7 mph ENE2.7 kmh ENE 3.8 mph6.1 kmh 29.71 in1006.1 mb 0.02 in0.5 mm 0.06 in/hr1.5 mm/hr 0.02 in0.5 mm
03:20 AM 51.6°F10.9°C 49.7°F9.8°C 93% 1.0 mph E1.6 kmh E 3.8 mph6.1 kmh 29.71 in1006.1 mb 0.01 in0.3 mm 0.00 in/hr0.0 mm/hr 0.01 in0.3 mm
03:10 AM 51.8°F11.0°C 49.6°F9.8°C 92% 0.7 mph E1.1 kmh E 3.1 mph5.0 kmh 29.73 in1006.8 mb 0.01 in0.3 mm 0.06 in/hr1.5 mm/hr 0.01 in0.3 mm
03:00 AM 51.8°F11.0°C 49.6°F9.8°C 92% 0.2 mph SW0.3 kmh SW 1.6 mph2.6 kmh 29.74 in1007.1 mb 0.00 in0.0 mm 0.00 in/hr0.0 mm/hr 0.00 in0.0 mm
02:50 AM 52.0°F11.1°C 49.7°F9.8°C 92% 0.1 mph NE0.2 kmh NE 1.6 mph2.6 kmh 29.74 in1007.1 mb 0.00 in0.0 mm 0.00 in/hr0.0 mm/hr 0.00 in0.0 mm
02:40 AM 52.0°F11.1°C 49.7°F9.8°C 92% 0.1 mph NW0.2 kmh NW 1.6 mph2.6 kmh 29.75 in1007.5 mb 0.00 in0.0 mm 0.00 in/hr0.0 mm/hr 0.00 in0.0 mm
02:30 AM 52.0°F11.1°C 49.7°F9.8°C 92% 0.2 mph S0.3 kmh S 2.2 mph3.5 kmh 29.75 in1007.5 mb 0.00 in0.0 mm 0.00 in/hr0.0 mm/hr 0.00 in0.0 mm
02:20 AM 52.0°F11.1°C 49.4°F9.7°C 91% 1.4 mph SSE2.3 kmh SSE 3.8 mph6.1 kmh 29.75 in1007.5 mb 0.00 in0.0 mm 0.00 in/hr0.0 mm/hr 0.00 in0.0 mm
02:10 AM 52.0°F11.1°C 49.4°F9.7°C 91% 0.4 mph ESE0.6 kmh ESE 3.1 mph5.0 kmh 29.73 in1006.8 mb 0.00 in0.0 mm 0.00 in/hr0.0 mm/hr 0.00 in0.0 mm
02:00 AM 52.2°F11.2°C 49.6°F9.8°C 91% 0.5 mph E0.8 kmh E 3.1 mph5.0 kmh 29.73 in1006.8 mb 0.00 in0.0 mm 0.00 in/hr0.0 mm/hr 0.00 in0.0 mm
01:50 AM 52.2°F11.2°C 49.6°F9.8°C 91% 1.1 mph E1.8 kmh E 4.5 mph7.2 kmh 29.75 in1007.5 mb 0.00 in0.0 mm 0.00 in/hr0.0 mm/hr 0.00 in0.0 mm
01:40 AM 52.2°F11.2°C 49.6°F9.8°C 91% 2.5 mph ENE4.0 kmh ENE 7.6 mph12.2 kmh 29.75 in1007.5 mb 0.00 in0.0 mm 0.00 in/hr0.0 mm/hr 0.00 in0.0 mm
01:30 AM 52.0°F11.1°C 49.4°F9.7°C 91% 3.3 mph NE5.3 kmh NE 6.0 mph9.7 kmh 29.74 in1007.1 mb 0.00 in0.0 mm 0.00 in/hr0.0 mm/hr 0.00 in0.0 mm
01:20 AM 52.0°F11.1°C 49.4°F9.7°C 91% 2.0 mph N3.2 kmh N 4.5 mph7.2 kmh 29.75 in1007.5 mb 0.00 in0.0 mm 0.00 in/hr0.0 mm/hr 0.00 in0.0 mm
01:10 AM 52.0°F11.1°C 49.4°F9.7°C 91% 1.2 mph NNE1.9 kmh NNE 3.1 mph5.0 kmh 29.77 in1008.1 mb 0.00 in0.0 mm 0.00 in/hr0.0 mm/hr 0.00 in0.0 mm
01:00 AM 52.2°F11.2°C 49.6°F9.8°C 91% 1.5 mph N2.4 kmh N 3.8 mph6.1 kmh 29.78 in1008.5 mb 0.00 in0.0 mm 0.00 in/hr0.0 mm/hr 0.00 in0.0 mm
12:50 AM 52.2°F11.2°C 49.9°F9.9°C 92% 1.4 mph N2.3 kmh N 4.5 mph7.2 kmh 29.78 in1008.5 mb 0.00 in0.0 mm 0.00 in/hr0.0 mm/hr 0.00 in0.0 mm
12:40 AM 52.0°F11.1°C 49.7°F9.8°C 92% 1.9 mph NE3.1 kmh NE 5.4 mph8.7 kmh 29.77 in1008.1 mb 0.00 in0.0 mm 0.00 in/hr0.0 mm/hr 0.00 in0.0 mm
12:30 AM 52.2°F11.2°C 49.9°F9.9°C 92% 2.5 mph NE4.0 kmh NE 6.0 mph9.7 kmh 29.76 in1007.8 mb 0.00 in0.0 mm 0.00 in/hr0.0 mm/hr 0.00 in0.0 mm
12:20 AM 52.2°F11.2°C 49.9°F9.9°C 92% 2.4 mph NE3.9 kmh NE 5.4 mph8.7 kmh 29.77 in1008.1 mb 0.00 in0.0 mm 0.00 in/hr0.0 mm/hr 0.00 in0.0 mm
12:10 AM 52.0°F11.1°C 49.7°F9.8°C 92% 1.6 mph E2.6 kmh E 5.4 mph8.7 kmh 29.77 in1008.1 mb 0.00 in0.0 mm 0.00 in/hr0.0 mm/hr 0.00 in0.0 mm
12:00 AM 52.0°F11.1°C 49.7°F9.8°C 92% 1.4 mph N2.3 kmh N 4.5 mph7.2 kmh 29.79 in1008.8 mb 0.00 in0.0 mm 0.00 in/hr0.0 mm/hr 0.00 in0.0 mm